Time;durP1;ratioP1;P1;durP2;ratioP2;P2;SDS_P1;SDS_P2;PMS_P1;PMS_P2;Temp;Humidity;BMP_temperature;BMP_pressure;BME280_temperature;BME280_humidity;BME280_pressure;Samples;Min_cycle;Max_cycle;Signal;HPM_P1;HPM_P2
2023/05/30 00:01:20;;;;;;;16.48;5.05;;;10.80;99.90;;;;;;5044859;28;20548;-64
2023/05/30 00:03:46;;;;;;;22.23;4.90;;;10.80;99.90;;;;;;5044452;28;20360;-64
2023/05/30 00:06:18;;;;;;;17.33;5.15;;;10.80;99.90;;;;;;5042638;28;20095;-64
2023/05/30 00:08:44;;;;;;;20.25;5.10;;;10.80;99.90;;;;;;5044900;28;20075;-66
2023/05/30 00:11:13;;;;;;;18.23;5.38;;;10.80;99.90;;;;;;5044704;28;20045;-63
2023/05/30 00:13:39;;;;;;;21.05;4.60;;;10.80;99.90;;;;;;5043984;28;20044;-63
2023/05/30 00:16:07;;;;;;;18.52;4.95;;;10.80;99.90;;;;;;5044249;28;20036;-65
2023/05/30 00:18:36;;;;;;;20.70;4.97;;;10.80;99.90;;;;;;5044161;28;20314;-63
2023/05/30 00:21:03;;;;;;;16.73;4.82;;;10.90;99.90;;;;;;5025831;28;20044;-63
2023/05/30 00:23:30;;;;;;;19.42;4.65;;;10.80;99.90;;;;;;5027558;28;20083;-64
2023/05/30 00:25:59;;;;;;;19.92;5.63;;;10.80;99.90;;;;;;5045702;28;20040;-64
2023/05/30 00:28:25;;;;;;;12.80;5.35;;;10.80;99.90;;;;;;5044260;28;20060;-64
2023/05/30 00:30:52;;;;;;;18.02;4.78;;;10.80;99.90;;;;;;5045568;28;20041;-63
2023/05/30 00:33:18;;;;;;;16.92;4.32;;;10.80;99.90;;;;;;5044328;28;20053;-63
2023/05/30 00:35:43;;;;;;;15.52;4.20;;;10.80;99.90;;;;;;5042433;28;20039;-64
2023/05/30 00:38:09;;;;;;;19.90;4.90;;;10.80;99.90;;;;;;5044424;28;20044;-62
2023/05/30 00:40:34;;;;;;;15.10;4.45;;;10.80;99.90;;;;;;5045386;28;20056;-64
2023/05/30 00:43:00;;;;;;;15.63;4.28;;;10.70;99.90;;;;;;5045377;28;20049;-63
2023/05/30 00:45:25;;;;;;;19.40;4.80;;;10.80;99.90;;;;;;5045550;28;20466;-64
2023/05/30 00:47:53;;;;;;;14.63;4.22;;;10.80;99.90;;;;;;5045398;28;20076;-65
2023/05/30 00:50:19;;;;;;;21.92;5.13;;;10.80;99.90;;;;;;5043731;28;20051;-62
2023/05/30 00:52:47;;;;;;;14.90;4.07;;;10.70;99.90;;;;;;5044260;28;20663;-63
2023/05/30 00:55:13;;;;;;;19.25;4.28;;;10.70;99.90;;;;;;5044905;28;20401;-64
2023/05/30 00:57:39;;;;;;;17.20;4.32;;;10.70;99.90;;;;;;5045147;28;20132;-62
2023/05/30 01:00:06;;;;;;;18.05;4.68;;;10.70;99.90;;;;;;5045428;28;20115;-63
2023/05/30 01:02:35;;;;;;;16.10;4.25;;;10.70;99.90;;;;;;5026840;28;20037;-64
2023/05/30 01:05:01;;;;;;;13.10;4.07;;;10.80;99.90;;;;;;5044748;28;20052;-63
2023/05/30 01:07:27;;;;;;;18.25;4.47;;;10.80;99.90;;;;;;5043357;28;20041;-63
2023/05/30 01:09:54;;;;;;;20.67;4.97;;;10.70;99.90;;;;;;5044680;28;20094;-64
2023/05/30 01:12:33;;;;;;;18.58;4.20;;;10.70;99.90;;;;;;5043000;28;20045;-63
2023/05/30 01:15:14;;;;;;;15.77;4.20;;;10.80;99.90;;;;;;5045428;28;20102;-64
2023/05/30 01:18:00;;;;;;;19.05;4.45;;;10.80;99.90;;;;;;5055188;28;20071;-64
2023/05/30 01:20:28;;;;;;;18.98;4.63;;;10.80;99.90;;;;;;5041854;28;20045;-64
2023/05/30 01:23:08;;;;;;;15.35;4.60;;;10.80;99.90;;;;;;5042715;28;20049;-64
2023/05/30 01:25:59;;;;;;;15.68;4.45;;;10.70;99.90;;;;;;5044510;28;20052;-66
2023/05/30 01:28:28;;;;;;;21.98;4.28;;;10.70;99.90;;;;;;5043299;28;20124;-65
2023/05/30 01:30:56;;;;;;;16.75;4.25;;;10.70;99.90;;;;;;5026578;28;20045;-65
2023/05/30 01:33:22;;;;;;;18.05;4.60;;;10.70;99.90;;;;;;5044322;28;20045;-64
2023/05/30 01:35:49;;;;;;;20.45;4.38;;;10.70;99.90;;;;;;5043545;28;20076;-65
2023/05/30 01:38:15;;;;;;;16.80;4.40;;;10.70;99.90;;;;;;5044699;28;20032;-65
2023/05/30 01:40:45;;;;;;;15.30;4.38;;;10.70;99.90;;;;;;5044604;28;20087;-65
2023/05/30 01:43:29;;;;;;;17.00;4.82;;;10.70;99.90;;;;;;5044168;28;20130;-65
2023/05/30 01:46:06;;;;;;;21.00;5.10;;;10.70;99.90;;;;;;5044760;28;20120;-64
2023/05/30 01:48:46;;;;;;;17.95;4.55;;;10.70;99.90;;;;;;5044277;28;20128;-65
2023/05/30 01:51:19;;;;;;;16.67;4.68;;;10.70;99.90;;;;;;5041529;28;20033;-64
2023/05/30 01:53:52;;;;;;;16.88;4.68;;;10.70;99.90;;;;;;5043961;28;20053;-65
2023/05/30 01:56:18;;;;;;;16.92;4.47;;;10.70;99.90;;;;;;5043103;28;20827;-65
2023/05/30 01:58:49;;;;;;;16.05;4.45;;;10.70;99.90;;;;;;5042816;28;20107;-65
2023/05/30 02:01:15;;;;;;;17.60;4.15;;;10.70;99.90;;;;;;5045819;28;20067;-66
2023/05/30 02:03:41;;;;;;;14.45;4.45;;;10.70;99.90;;;;;;5048243;28;20458;-64
2023/05/30 02:06:06;;;;;;;18.13;5.03;;;10.60;99.90;;;;;;5046220;28;20045;-65
2023/05/30 02:08:32;;;;;;;18.63;5.10;;;10.60;99.90;;;;;;5046836;28;20135;-65
2023/05/30 02:10:57;;;;;;;17.15;5.15;;;10.60;99.90;;;;;;5046966;28;20389;-64
2023/05/30 02:13:23;;;;;;;16.00;4.28;;;10.60;99.90;;;;;;5047086;28;20554;-64
2023/05/30 02:15:49;;;;;;;19.05;4.68;;;10.60;99.90;;;;;;5048234;28;20120;-65
2023/05/30 02:18:14;;;;;;;17.27;4.63;;;10.60;99.90;;;;;;5050644;28;20032;-64
2023/05/30 02:20:40;;;;;;;14.63;4.68;;;10.60;99.90;;;;;;5066188;28;20443;-64
2023/05/30 02:23:05;;;;;;;16.85;4.93;;;10.60;99.90;;;;;;5048456;28;20101;-65
2023/05/30 02:25:31;;;;;;;20.23;5.32;;;10.60;99.90;;;;;;5047656;28;20045;-64
2023/05/30 02:27:57;;;;;;;17.55;5.45;;;10.60;99.90;;;;;;5048156;28;20380;-64
2023/05/30 02:30:22;;;;;;;20.00;4.97;;;10.70;99.90;;;;;;5047542;28;20563;-64
2023/05/30 02:32:48;;;;;;;15.43;4.45;;;10.60;99.90;;;;;;5054929;28;20090;-64
2023/05/30 02:35:13;;;;;;;21.85;5.07;;;10.70;99.90;;;;;;5065409;28;20048;-65
2023/05/30 02:37:42;;;;;;;22.05;5.35;;;10.70;99.90;;;;;;5049770;28;20032;-64
2023/05/30 02:40:11;;;;;;;14.45;5.40;;;10.70;99.90;;;;;;5046671;28;20041;-64
2023/05/30 02:42:37;;;;;;;19.98;5.20;;;10.70;99.90;;;;;;5063056;28;20078;-65
2023/05/30 02:45:03;;;;;;;18.08;5.47;;;10.70;99.90;;;;;;5060761;28;20083;-64
2023/05/30 02:47:29;;;;;;;18.17;5.30;;;10.70;99.90;;;;;;5047328;28;20107;-64
2023/05/30 02:49:55;;;;;;;19.40;4.90;;;10.70;99.90;;;;;;5045921;28;20036;-64
2023/05/30 02:52:21;;;;;;;15.95;4.68;;;10.70;99.90;;;;;;5043882;28;20501;-64
2023/05/30 02:54:48;;;;;;;15.82;4.90;;;10.70;99.90;;;;;;5046013;28;20077;-64
2023/05/30 02:57:15;;;;;;;23.63;4.90;;;10.70;99.90;;;;;;5062436;28;20045;-64
2023/05/30 02:59:41;;;;;;;16.42;4.65;;;10.70;99.90;;;;;;5076172;28;20040;-64
2023/05/30 03:02:06;;;;;;;18.33;4.70;;;10.70;99.90;;;;;;5062547;28;20148;-65
2023/05/30 03:04:32;;;;;;;18.00;4.85;;;10.70;99.90;;;;;;5045935;28;20037;-64
2023/05/30 03:06:59;;;;;;;16.05;5.65;;;10.70;99.90;;;;;;5043784;28;20060;-64
2023/05/30 03:09:24;;;;;;;16.48;5.07;;;10.70;99.90;;;;;;5045738;28;20051;-64
2023/05/30 03:11:50;;;;;;;17.33;4.68;;;10.70;99.90;;;;;;5045513;28;20033;-65
2023/05/30 03:14:16;;;;;;;16.98;5.20;;;10.70;99.90;;;;;;5046863;28;20493;-65
2023/05/30 03:16:42;;;;;;;18.10;4.70;;;10.70;99.90;;;;;;5045092;28;20033;-65
2023/05/30 03:19:08;;;;;;;22.63;5.20;;;10.80;99.90;;;;;;5056433;28;20036;-65
2023/05/30 03:21:36;;;;;;;19.60;4.93;;;10.70;99.90;;;;;;5063894;28;20032;-64
2023/05/30 03:24:02;;;;;;;19.27;4.70;;;10.80;99.90;;;;;;5062145;28;20488;-66
2023/05/30 03:26:28;;;;;;;20.73;5.05;;;10.80;99.90;;;;;;5046855;28;20182;-67
2023/05/30 03:28:53;;;;;;;19.35;4.93;;;10.80;99.90;;;;;;5045333;28;20532;-65
2023/05/30 03:31:20;;;;;;;18.30;5.40;;;10.70;99.90;;;;;;5045152;28;20514;-64
2023/05/30 03:33:46;;;;;;;21.48;5.68;;;10.80;99.90;;;;;;5046896;28;20124;-65
2023/05/30 03:36:12;;;;;;;25.30;5.25;;;10.70;99.90;;;;;;5044971;28;20519;-65
2023/05/30 03:38:38;;;;;;;23.45;5.15;;;10.80;99.90;;;;;;5046856;28;20090;-65
2023/05/30 03:41:04;;;;;;;18.67;4.70;;;10.80;99.90;;;;;;5046752;28;20045;-65
2023/05/30 03:43:30;;;;;;;19.48;4.13;;;10.80;99.90;;;;;;5045010;28;20044;-65
2023/05/30 03:45:56;;;;;;;17.25;4.32;;;10.80;99.90;;;;;;5045127;28;20052;-65
2023/05/30 03:48:22;;;;;;;21.35;5.07;;;10.80;99.90;;;;;;5044858;28;20049;-65
2023/05/30 03:50:47;;;;;;;20.35;4.55;;;10.90;99.90;;;;;;5043128;28;20664;-68
2023/05/30 03:53:13;;;;;;;14.18;4.45;;;10.90;99.90;;;;;;5045032;28;20037;-64
2023/05/30 03:55:39;;;;;;;22.77;4.93;;;10.90;99.90;;;;;;5061380;28;20048;-65
2023/05/30 03:58:05;;;;;;;19.30;4.22;;;10.90;99.90;;;;;;5046450;28;20140;-64
2023/05/30 04:00:31;;;;;;;20.10;4.88;;;10.90;99.90;;;;;;5045903;28;20120;-64
2023/05/30 04:02:58;;;;;;;16.00;4.25;;;11.00;99.90;;;;;;5027869;28;20037;-64
2023/05/30 04:05:25;;;;;;;14.68;4.63;;;11.00;99.90;;;;;;5043172;28;20040;-64
2023/05/30 04:07:51;;;;;;;16.23;4.80;;;11.00;99.90;;;;;;5044394;28;20052;-65
2023/05/30 04:10:17;;;;;;;17.67;4.78;;;11.00;99.90;;;;;;5046317;28;20108;-66
2023/05/30 04:12:43;;;;;;;18.08;4.78;;;11.00;99.90;;;;;;5044529;28;20171;-65
2023/05/30 04:15:09;;;;;;;15.88;4.80;;;11.00;99.90;;;;;;5044046;28;20045;-64
2023/05/30 04:17:35;;;;;;;19.90;4.57;;;11.00;99.90;;;;;;5044537;28;20052;-64
2023/05/30 04:20:04;;;;;;;18.42;4.53;;;11.00;99.90;;;;;;5044183;28;20516;-65
2023/05/30 04:22:29;;;;;;;20.35;4.70;;;11.00;99.90;;;;;;5043094;28;20099;-63
2023/05/30 04:24:56;;;;;;;19.17;5.20;;;11.00;99.90;;;;;;5044327;28;20095;-64
2023/05/30 04:27:22;;;;;;;23.00;4.70;;;11.00;99.90;;;;;;5044541;28;20049;-65
2023/05/30 04:29:48;;;;;;;14.50;4.60;;;11.10;99.90;;;;;;5046098;28;20106;-65
2023/05/30 04:32:14;;;;;;;18.92;5.32;;;11.10;99.90;;;;;;5042884;28;20041;-64
2023/05/30 04:34:39;;;;;;;18.85;4.80;;;11.10;99.90;;;;;;5043991;28;20237;-64
2023/05/30 04:37:07;;;;;;;20.05;5.10;;;11.10;99.90;;;;;;5043785;28;20033;-63
2023/05/30 04:39:33;;;;;;;18.83;4.93;;;11.10;99.90;;;;;;5044256;28;20041;-65
2023/05/30 04:41:58;;;;;;;22.33;5.00;;;11.10;99.90;;;;;;5045355;28;20037;-65
2023/05/30 04:44:24;;;;;;;17.10;4.93;;;11.10;99.90;;;;;;5045998;28;20166;-65
2023/05/30 04:46:50;;;;;;;23.80;5.32;;;11.10;99.90;;;;;;5044098;28;20041;-65
2023/05/30 04:49:16;;;;;;;18.40;4.97;;;11.20;99.90;;;;;;5045553;28;20055;-65
2023/05/30 04:51:45;;;;;;;26.70;5.32;;;11.20;99.90;;;;;;5043898;28;20135;-65
2023/05/30 04:54:12;;;;;;;18.83;4.65;;;11.20;99.90;;;;;;5026930;28;20106;-64
2023/05/30 04:56:39;;;;;;;19.75;4.50;;;11.20;99.90;;;;;;5059973;28;20072;-65
2023/05/30 04:59:05;;;;;;;20.35;5.05;;;11.20;99.90;;;;;;5043528;28;20088;-65
2023/05/30 05:01:35;;;;;;;21.27;5.57;;;11.20;99.90;;;;;;5045047;28;20122;-63
2023/05/30 05:04:04;;;;;;;18.02;4.55;;;11.20;99.90;;;;;;5026561;28;20087;-64
2023/05/30 05:06:30;;;;;;;17.00;4.53;;;11.30;99.90;;;;;;5044911;28;20084;-64
2023/05/30 05:08:55;;;;;;;20.75;4.72;;;11.30;99.90;;;;;;5063577;28;20133;-64
2023/05/30 05:11:21;;;;;;;17.55;5.05;;;11.20;99.90;;;;;;5045266;28;20124;-63
2023/05/30 05:13:47;;;;;;;20.15;4.80;;;11.30;99.90;;;;;;5043258;28;20051;-63
2023/05/30 05:16:12;;;;;;;17.20;4.65;;;11.30;99.90;;;;;;5044622;28;20511;-63
2023/05/30 05:18:38;;;;;;;18.58;4.80;;;11.30;99.90;;;;;;5051092;28;20028;-64
2023/05/30 05:21:06;;;;;;;18.40;5.47;;;11.30;99.90;;;;;;5046836;28;20507;-66
2023/05/30 05:23:32;;;;;;;19.98;4.50;;;11.30;99.90;;;;;;5061198;28;20052;-65
2023/05/30 05:26:00;;;;;;;19.15;5.18;;;11.30;99.90;;;;;;5094054;28;20487;-65
2023/05/30 05:28:25;;;;;;;14.82;4.55;;;11.30;99.90;;;;;;5063199;28;20046;-64
2023/05/30 05:30:51;;;;;;;19.42;5.00;;;11.20;99.90;;;;;;5062848;28;20411;-63
2023/05/30 05:33:17;;;;;;;18.55;4.35;;;11.30;99.90;;;;;;5052978;28;20048;-65
2023/05/30 05:35:46;;;;;;;14.73;4.72;;;11.30;99.90;;;;;;5041308;28;20033;-64
2023/05/30 05:38:12;;;;;;;17.08;4.88;;;11.30;99.90;;;;;;5043258;28;20044;-64
2023/05/30 05:40:37;;;;;;;16.63;4.35;;;11.30;99.90;;;;;;5043038;28;20063;-64
2023/05/30 05:43:03;;;;;;;19.13;4.43;;;11.30;99.90;;;;;;5043042;28;20045;-65
2023/05/30 05:45:29;;;;;;;16.58;4.90;;;11.30;99.90;;;;;;5042718;28;20048;-65
2023/05/30 05:47:54;;;;;;;15.48;4.30;;;11.30;99.90;;;;;;5026927;28;20576;-63
2023/05/30 05:50:20;;;;;;;19.17;4.25;;;11.30;99.90;;;;;;5041742;28;20485;-64
2023/05/30 05:52:46;;;;;;;18.38;4.43;;;11.30;99.90;;;;;;5025945;28;20072;-64
2023/05/30 05:55:11;;;;;;;14.60;3.92;;;11.30;99.90;;;;;;5043580;28;20085;-65
2023/05/30 05:57:37;;;;;;;26.25;4.63;;;11.30;99.90;;;;;;5043268;28;20216;-64
2023/05/30 06:00:05;;;;;;;15.02;4.18;;;11.40;99.90;;;;;;5043255;28;20053;-63
2023/05/30 06:02:31;;;;;;;12.65;3.17;;;11.40;99.90;;;;;;5043695;28;20045;-65
2023/05/30 06:04:57;;;;;;;14.70;4.45;;;11.40;99.90;;;;;;5054124;28;20427;-65
2023/05/30 06:07:23;;;;;;;13.73;3.75;;;11.40;99.90;;;;;;5064052;28;20064;-64
2023/05/30 06:09:49;;;;;;;15.60;4.00;;;11.40;99.90;;;;;;5059724;28;20105;-65
2023/05/30 06:12:15;;;;;;;14.60;3.17;;;11.30;99.90;;;;;;5046132;28;20047;-63
2023/05/30 06:14:41;;;;;;;14.82;4.07;;;11.30;99.90;;;;;;5041772;28;20388;-64
2023/05/30 06:17:08;;;;;;;18.08;4.38;;;11.40;99.90;;;;;;5042419;28;20037;-64
2023/05/30 06:19:33;;;;;;;13.98;4.15;;;11.30;99.90;;;;;;5042249;28;20101;-64
2023/05/30 06:21:59;;;;;;;10.60;3.47;;;11.30;99.90;;;;;;5041949;28;20041;-66
2023/05/30 06:24:25;;;;;;;12.82;3.67;;;11.40;99.90;;;;;;5042449;28;20037;-64
2023/05/30 06:26:50;;;;;;;15.07;4.05;;;11.40;99.90;;;;;;5042627;28;20067;-64
2023/05/30 06:29:16;;;;;;;14.77;3.95;;;11.40;99.90;;;;;;5042984;28;20045;-63
2023/05/30 06:31:41;;;;;;;17.38;3.78;;;11.40;99.90;;;;;;5042339;28;20032;-65
2023/05/30 06:34:07;;;;;;;10.70;3.97;;;11.40;99.90;;;;;;5043606;28;20075;-63
2023/05/30 06:36:33;;;;;;;13.23;3.75;;;11.40;99.90;;;;;;5024671;28;20045;-63
2023/05/30 06:38:58;;;;;;;13.50;3.83;;;11.40;99.90;;;;;;5043015;28;20048;-64
2023/05/30 06:41:24;;;;;;;15.25;3.97;;;11.40;99.90;;;;;;5059378;28;20037;-66
2023/05/30 06:43:50;;;;;;;11.98;4.00;;;11.40;99.90;;;;;;5025758;28;20048;-65
2023/05/30 06:46:16;;;;;;;19.52;4.80;;;11.40;99.90;;;;;;5045079;28;20071;-64
2023/05/30 06:48:41;;;;;;;20.35;4.50;;;11.40;99.90;;;;;;5047826;28;20572;-63
2023/05/30 06:51:07;;;;;;;20.02;4.57;;;11.40;99.90;;;;;;5052943;28;20078;-62
2023/05/30 06:53:34;;;;;;;21.40;4.45;;;11.40;99.90;;;;;;5029433;28;20140;-63
2023/05/30 06:56:00;;;;;;;10.63;3.35;;;11.40;99.90;;;;;;5046347;28;20507;-64
2023/05/30 06:58:25;;;;;;;10.48;3.17;;;11.40;99.90;;;;;;5046410;28;20057;-63
2023/05/30 07:00:51;;;;;;;14.13;3.90;;;11.40;99.90;;;;;;5045857;28;20111;-64
2023/05/30 07:03:18;;;;;;;12.27;3.50;;;11.40;99.90;;;;;;5047086;28;20057;-64
2023/05/30 07:05:44;;;;;;;11.73;3.30;;;11.40;99.90;;;;;;5044568;28;20052;-66
2023/05/30 07:08:10;;;;;;;15.27;3.90;;;11.50;99.90;;;;;;5062959;28;20045;-64
2023/05/30 07:10:36;;;;;;;11.48;3.08;;;11.50;99.90;;;;;;5046214;28;20098;-65
2023/05/30 07:13:02;;;;;;;15.63;3.25;;;11.50;99.90;;;;;;5045708;28;20037;-64
2023/05/30 07:15:30;;;;;;;11.20;2.78;;;11.50;99.90;;;;;;5046907;28;20041;-62
2023/05/30 07:17:56;;;;;;;8.02;2.47;;;11.50;99.90;;;;;;5062348;28;20484;-63
2023/05/30 07:20:23;;;;;;;9.40;2.90;;;11.60;99.90;;;;;;5045851;28;20098;-65
2023/05/30 07:22:50;;;;;;;10.77;3.08;;;11.60;99.90;;;;;;5056628;28;20045;-65
2023/05/30 07:25:16;;;;;;;10.30;2.90;;;11.60;99.90;;;;;;5047102;28;20048;-65
2023/05/30 07:27:41;;;;;;;11.77;2.53;;;11.60;99.90;;;;;;5045675;28;20526;-64
2023/05/30 07:30:08;;;;;;;10.95;2.65;;;11.60;99.90;;;;;;5045588;28;20160;-65
2023/05/30 07:32:33;;;;;;;8.20;2.60;;;11.70;99.90;;;;;;5028612;28;20051;-65
2023/05/30 07:34:59;;;;;;;7.28;2.47;;;11.70;99.90;;;;;;5045515;28;20071;-64
2023/05/30 07:37:25;;;;;;;8.77;2.33;;;11.70;99.90;;;;;;5043440;28;20040;-63
2023/05/30 07:39:50;;;;;;;11.48;2.45;;;11.80;99.90;;;;;;5028962;28;20047;-64
2023/05/30 07:42:16;;;;;;;11.30;2.20;;;11.80;99.90;;;;;;5046605;28;20108;-65
2023/05/30 07:44:41;;;;;;;7.25;2.10;;;11.80;99.90;;;;;;5062206;28;20091;-65
2023/05/30 07:47:07;;;;;;;8.13;2.35;;;11.80;99.90;;;;;;5044810;28;20028;-65
2023/05/30 07:49:33;;;;;;;12.00;2.58;;;11.90;99.90;;;;;;5045375;28;20056;-66
2023/05/30 07:51:58;;;;;;;9.15;2.60;;;11.80;99.90;;;;;;5042976;28;20044;-63
2023/05/30 07:54:24;;;;;;;11.55;2.75;;;11.70;99.90;;;;;;5045220;28;20045;-66
2023/05/30 07:56:50;;;;;;;9.13;2.92;;;11.70;99.90;;;;;;5046276;28;20040;-64
2023/05/30 07:59:16;;;;;;;10.82;3.50;;;11.70;99.90;;;;;;5045576;28;20110;-64
2023/05/30 08:01:42;;;;;;;9.48;3.50;;;11.70;99.90;;;;;;5044307;28;20045;-66
2023/05/30 08:04:07;;;;;;;8.77;3.05;;;11.70;99.90;;;;;;5044592;28;20045;-66
2023/05/30 08:06:34;;;;;;;7.85;2.50;;;11.70;99.90;;;;;;5043021;28;20044;-64
2023/05/30 08:09:00;;;;;;;9.25;2.60;;;11.70;99.90;;;;;;5045257;28;20049;-64
2023/05/30 08:11:26;;;;;;;11.70;2.70;;;11.70;99.90;;;;;;5079069;28;20484;-63
2023/05/30 08:13:52;;;;;;;8.27;2.40;;;11.80;99.90;;;;;;5077575;28;20051;-63
2023/05/30 08:16:18;;;;;;;7.90;2.63;;;11.80;99.90;;;;;;5044783;28;20053;-62
2023/05/30 08:18:45;;;;;;;8.55;2.97;;;11.80;99.90;;;;;;5045569;28;20478;-64
2023/05/30 08:21:11;;;;;;;8.25;2.42;;;11.90;99.90;;;;;;5044016;28;20045;-64
2023/05/30 08:23:38;;;;;;;7.65;2.13;;;12.00;99.90;;;;;;5044599;28;20044;-64
2023/05/30 08:26:06;;;;;;;6.97;2.33;;;12.10;99.90;;;;;;5044576;28;20465;-63
2023/05/30 08:28:32;;;;;;;8.45;2.88;;;12.10;99.90;;;;;;5046471;28;20683;-65
2023/05/30 08:30:58;;;;;;;8.93;2.80;;;12.20;99.90;;;;;;5043956;28;20049;-62
2023/05/30 08:33:25;;;;;;;9.98;2.63;;;12.20;99.90;;;;;;5043781;28;20067;-64
2023/05/30 08:35:51;;;;;;;10.20;2.55;;;12.30;99.90;;;;;;5042339;28;20041;-64
2023/05/30 08:38:17;;;;;;;11.57;3.10;;;12.40;99.90;;;;;;5044381;28;20064;-66
2023/05/30 08:40:45;;;;;;;9.27;3.00;;;12.40;99.90;;;;;;5042438;28;20045;-63
2023/05/30 08:43:11;;;;;;;11.90;3.00;;;12.40;99.90;;;;;;5045131;28;20099;-63
2023/05/30 08:45:37;;;;;;;10.38;2.63;;;12.40;99.90;;;;;;5044044;28;20101;-64
2023/05/30 08:48:05;;;;;;;7.70;2.70;;;12.40;99.90;;;;;;5034985;28;20837;-63
2023/05/30 08:50:33;;;;;;;8.52;2.30;;;12.40;99.90;;;;;;5042325;28;20101;-66
2023/05/30 08:53:08;;;;;;;8.75;2.65;;;12.40;99.90;;;;;;5045493;28;20561;-63
2023/05/30 08:55:39;;;;;;;9.82;2.78;;;12.40;99.90;;;;;;5045329;28;20041;-61
2023/05/30 08:58:13;;;;;;;9.93;2.28;;;12.40;99.90;;;;;;5043677;28;20067;-63
2023/05/30 09:00:39;;;;;;;5.38;2.40;;;12.40;99.90;;;;;;5043723;28;20037;-65
2023/05/30 09:03:07;;;;;;;9.20;2.60;;;12.50;99.90;;;;;;5043711;28;20182;-64
2023/05/30 09:05:37;;;;;;;6.55;2.60;;;12.50;99.90;;;;;;5059195;28;20385;-66
2023/05/30 09:08:03;;;;;;;8.50;2.47;;;12.50;99.90;;;;;;5043752;28;20045;-66
2023/05/30 09:10:29;;;;;;;8.98;2.17;;;12.50;99.90;;;;;;5043409;28;20040;-65
2023/05/30 09:12:57;;;;;;;5.93;2.15;;;12.30;99.90;;;;;;5043358;28;20380;-63
2023/05/30 09:15:23;;;;;;;7.20;2.00;;;12.20;99.90;;;;;;5039674;28;20048;-64
2023/05/30 09:17:49;;;;;;;8.73;2.00;;;12.10;99.90;;;;;;5043717;28;20045;-66
2023/05/30 09:20:20;;;;;;;5.93;2.10;;;12.10;99.90;;;;;;5061941;28;20047;-67
2023/05/30 09:22:46;;;;;;;9.88;2.03;;;12.10;99.90;;;;;;5043914;28;20508;-64
2023/05/30 09:25:15;;;;;;;6.25;1.95;;;12.10;99.90;;;;;;5043047;28;20045;-63
2023/05/30 09:27:45;;;;;;;4.78;1.63;;;12.20;99.90;;;;;;5044942;28;20123;-64
2023/05/30 09:30:12;;;;;;;4.40;1.73;;;12.40;99.90;;;;;;5043159;28;20080;-65
2023/05/30 09:32:38;;;;;;;4.85;1.40;;;12.60;99.90;;;;;;5042951;28;20137;-64
2023/05/30 09:35:12;;;;;;;5.72;1.77;;;12.70;99.90;;;;;;5026962;28;20033;-65
2023/05/30 09:37:43;;;;;;;6.53;2.00;;;12.90;99.90;;;;;;5043937;28;20040;-64
2023/05/30 09:40:15;;;;;;;3.90;1.52;;;13.10;99.90;;;;;;5043465;28;20472;-66
2023/05/30 09:42:49;;;;;;;6.15;1.27;;;13.20;99.90;;;;;;5026901;28;20127;-64
2023/05/30 09:45:17;;;;;;;5.80;1.90;;;13.20;99.90;;;;;;5044916;28;20222;-64
2023/05/30 09:47:45;;;;;;;5.90;1.70;;;13.20;99.90;;;;;;5043189;28;20103;-64
2023/05/30 09:50:13;;;;;;;3.72;1.33;;;13.30;99.90;;;;;;5025472;28;20072;-65
2023/05/30 09:52:40;;;;;;;4.82;1.38;;;13.20;99.90;;;;;;5026055;28;20159;-64
2023/05/30 09:55:12;;;;;;;4.97;1.40;;;13.20;99.90;;;;;;5026631;28;20636;-64
2023/05/30 09:57:39;;;;;;;3.90;1.40;;;13.10;99.90;;;;;;5043139;28;20091;-64
2023/05/30 10:00:11;;;;;;;5.65;1.40;;;13.00;99.90;;;;;;5059907;28;20044;-65
2023/05/30 10:02:41;;;;;;;6.47;1.70;;;13.00;99.90;;;;;;5043973;28;20120;-63
2023/05/30 10:05:27;;;;;;;4.35;1.23;;;12.90;99.90;;;;;;5042893;28;20037;-67
2023/05/30 10:07:57;;;;;;;4.43;1.45;;;12.90;99.90;;;;;;5026319;28;20051;-62
2023/05/30 10:10:24;;;;;;;5.30;1.77;;;12.90;99.90;;;;;;5042551;28;20073;-66
2023/05/30 10:12:55;;;;;;;6.43;1.58;;;12.80;99.90;;;;;;5044170;28;20452;-66
2023/05/30 10:15:23;;;;;;;5.00;1.50;;;12.80;99.90;;;;;;5042802;28;20649;-66
2023/05/30 10:18:06;;;;;;;5.03;1.40;;;12.80;99.90;;;;;;5042977;28;20299;-66
2023/05/30 10:20:36;;;;;;;3.78;1.40;;;12.70;99.90;;;;;;5025205;28;20033;-63
2023/05/30 10:23:06;;;;;;;3.78;1.42;;;12.70;99.90;;;;;;5046960;28;20087;-65
2023/05/30 10:25:36;;;;;;;4.35;1.40;;;12.70;99.90;;;;;;5048073;28;20052;-66
2023/05/30 10:28:05;;;;;;;5.63;1.30;;;12.70;99.90;;;;;;5047094;28;20040;-65
2023/05/30 10:30:33;;;;;;;5.80;1.52;;;12.70;99.90;;;;;;5046262;28;20059;-65
2023/05/30 10:33:04;;;;;;;5.22;1.80;;;12.80;99.90;;;;;;5046789;28;20118;-64
2023/05/30 10:35:32;;;;;;;5.57;1.80;;;12.80;99.90;;;;;;5046438;28;20049;-66
2023/05/30 10:37:59;;;;;;;5.22;1.65;;;12.90;99.90;;;;;;5046681;28;20046;-65
2023/05/30 10:40:53;;;;;;;4.65;1.58;;;12.90;99.90;;;;;;5056998;28;20044;-63
2023/05/30 10:43:31;;;;;;;5.55;1.90;;;12.90;99.90;;;;;;5083304;28;20495;-65
2023/05/30 10:46:24;;;;;;;5.32;1.73;;;12.90;99.90;;;;;;5056986;28;20093;-66
2023/05/30 10:48:53;;;;;;;4.97;1.67;;;12.90;99.90;;;;;;5046488;28;20040;-65
2023/05/30 10:51:20;;;;;;;3.90;1.50;;;12.90;99.90;;;;;;5054659;28;20059;-65
2023/05/30 10:53:47;;;;;;;6.30;1.90;;;12.90;99.90;;;;;;5057466;28;20037;-66
2023/05/30 10:56:34;;;;;;;7.45;1.83;;;12.90;99.90;;;;;;5061990;28;20037;-64
2023/05/30 10:59:14;;;;;;;5.88;1.70;;;13.00;99.90;;;;;;5046075;28;20049;-66
2023/05/30 11:01:40;;;;;;;4.18;1.48;;;13.00;99.90;;;;;;5046777;28;20131;-66
2023/05/30 11:04:06;;;;;;;4.95;1.60;;;13.10;99.90;;;;;;5047672;28;20116;-65
2023/05/30 11:06:34;;;;;;;5.50;1.50;;;13.10;99.90;;;;;;5044390;28;20051;-65
2023/05/30 11:09:11;;;;;;;3.63;1.30;;;13.20;99.90;;;;;;5046426;28;20045;-64
2023/05/30 11:11:41;;;;;;;7.32;1.80;;;13.20;99.90;;;;;;5045844;28;20049;-66
2023/05/30 11:14:09;;;;;;;5.53;1.50;;;13.20;99.90;;;;;;5028996;28;20128;-64
2023/05/30 11:16:54;;;;;;;5.75;1.65;;;13.20;99.90;;;;;;5066536;28;20044;-66
2023/05/30 11:19:24;;;;;;;5.07;1.40;;;13.20;99.90;;;;;;5059520;28;20137;-64
2023/05/30 11:22:00;;;;;;;3.70;1.33;;;13.10;99.90;;;;;;5046951;28;20642;-64
2023/05/30 11:24:26;;;;;;;6.55;1.60;;;13.10;99.90;;;;;;5064556;28;20316;-65
2023/05/30 11:27:06;;;;;;;4.88;1.30;;;13.20;99.90;;;;;;5045743;28;20041;-63
2023/05/30 11:29:38;;;;;;;3.40;1.23;;;13.30;99.90;;;;;;5045673;28;20089;-65
2023/05/30 11:32:06;;;;;;;5.25;1.60;;;13.30;99.90;;;;;;5044801;28;20040;-68
2023/05/30 11:34:32;;;;;;;3.17;1.27;;;13.40;99.90;;;;;;5045776;28;20044;-65
2023/05/30 11:36:58;;;;;;;3.95;1.15;;;13.50;99.90;;;;;;5043584;28;20033;-63
2023/05/30 11:39:24;;;;;;;5.70;1.20;;;13.60;99.90;;;;;;5062646;28;20037;-63
2023/05/30 11:41:50;;;;;;;5.97;1.58;;;13.70;99.90;;;;;;5061731;28;20045;-63
2023/05/30 11:44:17;;;;;;;3.83;1.50;;;13.70;99.90;;;;;;5045961;28;20041;-65
2023/05/30 11:46:42;;;;;;;3.55;1.30;;;13.70;99.90;;;;;;5028384;28;20045;-64
2023/05/30 11:49:11;;;;;;;3.72;1.70;;;13.80;99.90;;;;;;5029149;28;20657;-65
2023/05/30 11:51:39;;;;;;;4.28;1.63;;;13.70;99.90;;;;;;5043197;28;20056;-63
2023/05/30 11:54:07;;;;;;;5.57;1.40;;;13.70;99.90;;;;;;5045135;28;20511;-65
2023/05/30 11:56:33;;;;;;;4.45;1.58;;;13.60;99.90;;;;;;5046538;28;20041;-64
2023/05/30 11:58:59;;;;;;;4.63;1.42;;;13.60;99.90;;;;;;5044943;28;20056;-65
2023/05/30 12:01:25;;;;;;;4.68;1.63;;;13.50;99.90;;;;;;5044632;28;20408;-63
2023/05/30 12:03:53;;;;;;;3.72;1.33;;;13.50;99.90;;;;;;5044808;28;20070;-63
2023/05/30 12:06:19;;;;;;;7.25;1.63;;;13.40;99.90;;;;;;5043016;28;20451;-64
2023/05/30 12:08:49;;;;;;;4.60;1.77;;;13.30;99.90;;;;;;5044705;28;20044;-64
2023/05/30 12:11:15;;;;;;;6.18;1.48;;;13.20;99.90;;;;;;5032152;28;20503;-63
2023/05/30 12:13:42;;;;;;;3.72;1.38;;;13.20;99.90;;;;;;5046011;28;20484;-63
2023/05/30 12:16:10;;;;;;;5.38;1.58;;;13.20;99.90;;;;;;5044460;28;20048;-63
2023/05/30 12:18:36;;;;;;;4.35;1.67;;;13.10;99.90;;;;;;5051660;28;20062;-65
2023/05/30 12:21:02;;;;;;;6.90;1.83;;;13.10;99.90;;;;;;5062910;28;20037;-63
2023/05/30 12:23:31;;;;;;;4.55;1.80;;;13.10;99.90;;;;;;5064441;28;20496;-65
2023/05/30 12:25:57;;;;;;;5.13;1.73;;;13.10;99.90;;;;;;5050762;28;20036;-64
2023/05/30 12:28:23;;;;;;;7.22;2.10;;;13.10;99.90;;;;;;5044412;28;20066;-66
2023/05/30 12:30:52;;;;;;;6.07;2.00;;;13.10;99.90;;;;;;5060718;28;20139;-65
2023/05/30 12:33:21;;;;;;;5.05;1.77;;;13.20;99.90;;;;;;5046147;28;20041;-63
2023/05/30 12:35:52;;;;;;;6.43;2.50;;;13.30;99.90;;;;;;5058675;28;20041;-60
2023/05/30 12:38:19;;;;;;;7.97;2.55;;;13.30;99.90;;;;;;5044456;28;20124;-65
2023/05/30 12:40:48;;;;;;;6.47;2.10;;;13.30;99.90;;;;;;5027592;28;20045;-64
2023/05/30 12:43:35;;;;;;;4.63;1.83;;;13.40;99.90;;;;;;5054398;28;20578;-63